AIB280 VHHH-ZULS
Flight info
| Callsign | AIB280 |
|---|---|
| Flight time | N/A |
| Altitude | 30100 |
| Route | BEKOL A461 YIN/K0895S0950 A461 MOLSO/K0896S0920 G586 SJG/K0895S0980 B330 ELKAL W179 RIRKI W232 WFX V69 KDJ W9 DM |
| Aircraft | B738/M-SDE2E3FGHIRWXY/LB1 |
Departure
| Time | 2026-05-06 20:22 |
|---|---|
| Airport | Hong Kong International Airport (VHHH) |
Arrival
| Time | N/A |
|---|---|
| Airport | Lhasa Gonggar International Airport (ZULS) |
| Time | Latitude | Longitude | Altitude | Speed | Heading |
|---|---|---|---|---|---|
| 2026-05-06 20:12 | 22.30728 | 113.89836 | 35 ft | 0 kts | 341° |
| 2026-05-06 20:20 | 22.30731 | 113.89835 | 33 ft | 3 kts | 341° |
| 2026-05-06 20:20 | 22.30784 | 113.89815 | 35 ft | 12 kts | 341° |
| 2026-05-06 20:20 | 22.30893 | 113.89793 | 35 ft | 20 kts | 354° |
| 2026-05-06 20:20 | 22.31055 | 113.89772 | 35 ft | 24 kts | 8° |
| 2026-05-06 20:21 | 22.31127 | 113.89903 | 35 ft | 21 kts | 72° |
| 2026-05-06 20:21 | 22.31242 | 113.90254 | 35 ft | 83 kts | 71° |
| 2026-05-06 20:21 | 22.31499 | 113.91055 | 34 ft | 141 kts | 72° |
| 2026-05-06 20:21 | 22.31836 | 113.92187 | 280 ft | 166 kts | 72° |
| 2026-05-06 20:22 | 22.32243 | 113.93391 | 878 ft | 175 kts | 71° |
| 2026-05-06 20:22 | 22.32662 | 113.94656 | 1557 ft | 178 kts | 72° |
| 2026-05-06 20:22 | 22.33081 | 113.95956 | 2037 ft | 196 kts | 73° |
| 2026-05-06 20:22 | 22.33500 | 113.97452 | 2247 ft | 217 kts | 81° |
| 2026-05-06 20:23 | 22.33769 | 113.99097 | 2674 ft | 228 kts | 83° |
| 2026-05-06 20:23 | 22.34035 | 114.00829 | 3178 ft | 238 kts | 83° |
| 2026-05-06 20:23 | 22.34310 | 114.02575 | 3871 ft | 238 kts | 83° |
| 2026-05-06 20:23 | 22.34353 | 114.04363 | 4521 ft | 239 kts | 102° |
| 2026-05-06 20:24 | 22.33819 | 114.06061 | 5151 ft | 241 kts | 122° |
| 2026-05-06 20:24 | 22.32769 | 114.07463 | 5769 ft | 241 kts | 142° |
| 2026-05-06 20:24 | 22.31330 | 114.08362 | 6399 ft | 240 kts | 164° |
| 2026-05-06 20:24 | 22.29687 | 114.08702 | 6967 ft | 242 kts | 178° |
| 2026-05-06 20:25 | 22.27991 | 114.08739 | 7547 ft | 244 kts | 182° |
| 2026-05-06 20:25 | 22.26277 | 114.08732 | 7905 ft | 248 kts | 182° |
| 2026-05-06 20:25 | 22.24570 | 114.08713 | 7918 ft | 251 kts | 183° |
| 2026-05-06 20:25 | 22.22744 | 114.08681 | 7973 ft | 274 kts | 182° |
| 2026-05-06 20:26 | 22.20806 | 114.08655 | 7954 ft | 281 kts | 182° |
| 2026-05-06 20:26 | 22.18856 | 114.08832 | 7930 ft | 284 kts | 163° |
| 2026-05-06 20:26 | 22.17168 | 114.09910 | 7954 ft | 286 kts | 137° |
| 2026-05-06 20:26 | 22.16077 | 114.11699 | 7952 ft | 289 kts | 112° |
| 2026-05-06 20:27 | 22.15687 | 114.13815 | 7958 ft | 291 kts | 96° |
| 2026-05-06 20:27 | 22.15572 | 114.16021 | 7951 ft | 293 kts | 95° |
| 2026-05-06 20:27 | 22.15467 | 114.18222 | 7948 ft | 294 kts | 95° |
| 2026-05-06 20:27 | 22.15346 | 114.20427 | 7933 ft | 295 kts | 95° |
| 2026-05-06 20:28 | 22.15216 | 114.22612 | 7940 ft | 296 kts | 95° |
| 2026-05-06 20:28 | 22.15087 | 114.24828 | 7948 ft | 297 kts | 93° |
| 2026-05-06 20:28 | 22.15314 | 114.27042 | 7953 ft | 298 kts | 78° |
| 2026-05-06 20:28 | 22.15814 | 114.29221 | 7939 ft | 299 kts | 76° |
| 2026-05-06 20:29 | 22.16342 | 114.31395 | 7940 ft | 300 kts | 77° |
| 2026-05-06 20:29 | 22.16845 | 114.33577 | 7947 ft | 300 kts | 77° |
| 2026-05-06 20:29 | 22.17327 | 114.35767 | 7944 ft | 300 kts | 78° |
| 2026-05-06 20:29 | 22.17800 | 114.37961 | 7939 ft | 300 kts | 78° |
| 2026-05-06 20:30 | 22.18417 | 114.40104 | 7929 ft | 300 kts | 60° |
| 2026-05-06 20:30 | 22.21669 | 114.42603 | 8134 ft | 295 kts | 7° |
| 2026-05-06 20:30 | 22.23718 | 114.42647 | 8725 ft | 295 kts | 350° |
| 2026-05-06 20:31 | 22.25740 | 114.42290 | 9428 ft | 295 kts | 347° |
| 2026-05-06 20:31 | 22.27761 | 114.41877 | 10073 ft | 297 kts | 346° |
| 2026-05-06 20:31 | 22.29822 | 114.41452 | 10350 ft | 314 kts | 347° |
| 2026-05-06 20:31 | 22.32038 | 114.41005 | 10499 ft | 333 kts | 347° |
| 2026-05-06 20:32 | 22.34386 | 114.40543 | 10628 ft | 352 kts | 347° |
| 2026-05-06 20:32 | 22.36861 | 114.40066 | 10760 ft | 369 kts | 348° |
| 2026-05-06 20:32 | 22.39447 | 114.39575 | 10870 ft | 385 kts | 348° |
| 2026-05-06 20:32 | 22.42141 | 114.39064 | 10975 ft | 399 kts | 348° |
| 2026-05-06 20:33 | 22.44902 | 114.38530 | 11262 ft | 406 kts | 345° |
| 2026-05-06 20:33 | 22.47525 | 114.37453 | 11632 ft | 403 kts | 324° |
| 2026-05-06 20:33 | 22.49598 | 114.35447 | 12122 ft | 398 kts | 306° |
| 2026-05-06 20:33 | 22.51026 | 114.32910 | 12569 ft | 396 kts | 290° |
| 2026-05-06 20:34 | 22.51733 | 114.30029 | 12984 ft | 396 kts | 278° |
| 2026-05-06 20:34 | 22.52162 | 114.27077 | 13396 ft | 399 kts | 277° |
| 2026-05-06 20:34 | 22.52591 | 114.24105 | 13785 ft | 402 kts | 277° |
| 2026-05-06 20:34 | 22.53050 | 114.21112 | 14139 ft | 404 kts | 278° |
| 2026-05-06 20:35 | 22.53533 | 114.18106 | 14514 ft | 406 kts | 280° |
| 2026-05-06 20:35 | 22.54482 | 114.15212 | 14828 ft | 414 kts | 298° |
| 2026-05-06 20:35 | 22.56284 | 114.12768 | 15201 ft | 419 kts | 314° |
| 2026-05-06 20:35 | 22.58672 | 114.10921 | 15540 ft | 426 kts | 330° |
| 2026-05-06 20:36 | 22.61328 | 114.09554 | 15878 ft | 429 kts | 333° |
| 2026-05-06 20:36 | 22.64058 | 114.08204 | 16177 ft | 432 kts | 333° |
| 2026-05-06 20:36 | 22.66800 | 114.06849 | 16498 ft | 434 kts | 333° |
| 2026-05-06 20:36 | 22.69547 | 114.05475 | 16842 ft | 435 kts | 332° |
| 2026-05-06 20:37 | 22.72297 | 114.04083 | 17160 ft | 437 kts | 332° |
| 2026-05-06 20:37 | 22.75054 | 114.02675 | 17448 ft | 439 kts | 332° |
| 2026-05-06 20:37 | 22.77830 | 114.01251 | 17730 ft | 441 kts | 332° |
| 2026-05-06 20:37 | 22.80614 | 113.99820 | 18028 ft | 443 kts | 332° |
| 2026-05-06 20:38 | 22.83370 | 113.98403 | 18298 ft | 445 kts | 332° |
| 2026-05-06 20:38 | 22.86172 | 113.96963 | 18538 ft | 446 kts | 332° |
| 2026-05-06 20:38 | 22.88981 | 113.95519 | 18782 ft | 447 kts | 332° |
| 2026-05-06 20:38 | 22.91802 | 113.94064 | 19030 ft | 448 kts | 332° |
| 2026-05-06 20:39 | 22.94616 | 113.92602 | 19269 ft | 450 kts | 332° |
| 2026-05-06 20:39 | 22.97440 | 113.91130 | 19498 ft | 451 kts | 332° |
| 2026-05-06 20:39 | 23.00273 | 113.89653 | 19724 ft | 452 kts | 332° |
| 2026-05-06 20:39 | 23.03122 | 113.88168 | 19942 ft | 454 kts | 332° |
| 2026-05-06 20:40 | 23.05971 | 113.86684 | 20154 ft | 455 kts | 332° |
| 2026-05-06 20:40 | 23.08826 | 113.85199 | 20366 ft | 456 kts | 332° |
| 2026-05-06 20:40 | 23.11755 | 113.83832 | 20575 ft | 459 kts | 336° |
| 2026-05-06 20:40 | 23.14755 | 113.82619 | 20793 ft | 460 kts | 338° |
| 2026-05-06 20:41 | 23.17747 | 113.81484 | 20989 ft | 462 kts | 338° |
| 2026-05-06 20:41 | 23.20789 | 113.80346 | 21182 ft | 463 kts | 338° |
| 2026-05-06 20:41 | 23.23842 | 113.79195 | 21368 ft | 464 kts | 338° |
| 2026-05-06 20:41 | 23.26901 | 113.78024 | 21554 ft | 465 kts | 338° |
| 2026-05-06 20:42 | 23.29956 | 113.76838 | 21735 ft | 466 kts | 338° |
| 2026-05-06 20:42 | 23.33018 | 113.75638 | 21917 ft | 467 kts | 338° |
| 2026-05-06 20:42 | 23.36072 | 113.74435 | 22095 ft | 468 kts | 338° |
| 2026-05-06 20:42 | 23.39138 | 113.73224 | 22289 ft | 469 kts | 338° |
| 2026-05-06 20:43 | 23.42206 | 113.72011 | 22452 ft | 470 kts | 338° |
| 2026-05-06 20:43 | 23.45286 | 113.70794 | 22599 ft | 471 kts | 338° |
| 2026-05-06 20:43 | 23.48333 | 113.69589 | 22739 ft | 472 kts | 338° |
| 2026-05-06 20:43 | 23.51426 | 113.68366 | 22887 ft | 473 kts | 338° |
| 2026-05-06 20:44 | 23.54533 | 113.67137 | 23037 ft | 474 kts | 338° |
| 2026-05-06 20:44 | 23.57634 | 113.65910 | 23175 ft | 475 kts | 338° |
| 2026-05-06 20:44 | 23.60743 | 113.64679 | 23312 ft | 476 kts | 338° |
| 2026-05-06 20:44 | 23.63856 | 113.63446 | 23442 ft | 477 kts | 338° |
| 2026-05-06 20:45 | 23.66978 | 113.62210 | 23567 ft | 477 kts | 338° |
| 2026-05-06 20:45 | 23.70103 | 113.60971 | 23678 ft | 478 kts | 338° |
| 2026-05-06 20:45 | 23.73230 | 113.59730 | 23797 ft | 478 kts | 338° |
| 2026-05-06 20:45 | 23.76369 | 113.58485 | 23924 ft | 479 kts | 338° |
| 2026-05-06 20:46 | 23.79501 | 113.57241 | 24050 ft | 479 kts | 338° |
| 2026-05-06 20:46 | 23.82630 | 113.55998 | 24158 ft | 479 kts | 338° |
| 2026-05-06 20:46 | 23.85768 | 113.54750 | 24264 ft | 480 kts | 338° |
| 2026-05-06 20:46 | 23.88913 | 113.53500 | 24359 ft | 481 kts | 338° |
| 2026-05-06 20:47 | 23.92020 | 113.52264 | 24463 ft | 481 kts | 337° |
| 2026-05-06 20:47 | 23.95170 | 113.51010 | 24570 ft | 482 kts | 337° |
| 2026-05-06 20:47 | 23.98325 | 113.49753 | 24671 ft | 482 kts | 337° |
| 2026-05-06 20:47 | 24.01481 | 113.48495 | 24768 ft | 483 kts | 337° |
| 2026-05-06 20:48 | 24.04645 | 113.47233 | 24869 ft | 484 kts | 337° |
| 2026-05-06 20:48 | 24.07810 | 113.45970 | 24958 ft | 485 kts | 337° |
| 2026-05-06 20:48 | 24.10988 | 113.44702 | 25029 ft | 486 kts | 337° |
| 2026-05-06 20:48 | 24.14162 | 113.43435 | 25128 ft | 486 kts | 337° |
| 2026-05-06 20:49 | 24.17381 | 113.42281 | 25229 ft | 488 kts | 343° |
| 2026-05-06 20:49 | 24.20731 | 113.41619 | 25379 ft | 490 kts | 351° |
| 2026-05-06 20:49 | 24.24147 | 113.41505 | 25532 ft | 493 kts | 359° |
| 2026-05-06 20:49 | 24.27573 | 113.41693 | 25676 ft | 493 kts | 0° |
| 2026-05-06 20:50 | 24.31004 | 113.41871 | 25793 ft | 493 kts | 359° |
| 2026-05-06 20:50 | 24.34430 | 113.42002 | 25921 ft | 493 kts | 359° |
| 2026-05-06 20:50 | 24.37843 | 113.41843 | 26020 ft | 488 kts | 345° |
| 2026-05-06 20:50 | 24.40996 | 113.40589 | 26100 ft | 480 kts | 327° |
| 2026-05-06 20:51 | 24.43644 | 113.38491 | 26287 ft | 473 kts | 314° |
| 2026-05-06 20:51 | 24.45769 | 113.35776 | 26512 ft | 468 kts | 302° |
| 2026-05-06 20:51 | 24.47325 | 113.32655 | 26679 ft | 464 kts | 290° |
| 2026-05-06 20:51 | 24.48139 | 113.29244 | 26776 ft | 463 kts | 275° |
| 2026-05-06 20:52 | 24.47949 | 113.25719 | 26852 ft | 465 kts | 256° |
| 2026-05-06 20:52 | 24.46747 | 113.22429 | 27128 ft | 464 kts | 245° |
| 2026-05-06 20:52 | 24.45501 | 113.19167 | 27394 ft | 460 kts | 255° |
| 2026-05-06 20:52 | 24.44985 | 113.15719 | 27552 ft | 459 kts | 268° |
| 2026-05-06 20:53 | 24.45090 | 113.12230 | 27802 ft | 457 kts | 275° |
| 2026-05-06 20:53 | 24.45484 | 113.08772 | 28005 ft | 456 kts | 277° |
| 2026-05-06 20:53 | 24.45912 | 113.05363 | 28214 ft | 455 kts | 277° |
| 2026-05-06 20:53 | 24.46308 | 113.01918 | 28437 ft | 454 kts | 276° |
| 2026-05-06 20:54 | 24.46663 | 112.98476 | 28648 ft | 453 kts | 276° |
| 2026-05-06 20:54 | 24.46997 | 112.95034 | 28870 ft | 453 kts | 275° |
| 2026-05-06 20:54 | 24.47325 | 112.91588 | 29124 ft | 451 kts | 276° |
| 2026-05-06 20:54 | 24.47654 | 112.88155 | 29394 ft | 450 kts | 276° |
| 2026-05-06 20:55 | 24.47984 | 112.84746 | 29625 ft | 449 kts | 276° |
| 2026-05-06 20:55 | 24.48311 | 112.81381 | 29891 ft | 447 kts | 276° |
| 2026-05-06 20:55 | 24.48642 | 112.77993 | 30134 ft | 446 kts | 276° |
| 2026-05-06 20:55 | 24.48970 | 112.74616 | 30402 ft | 443 kts | 276° |
| 2026-05-06 20:56 | 24.49298 | 112.71254 | 30631 ft | 442 kts | 276° |
| 2026-05-06 20:56 | 24.49626 | 112.67904 | 30796 ft | 442 kts | 276° |
| 2026-05-06 20:56 | 24.49957 | 112.64539 | 30950 ft | 442 kts | 276° |
| 2026-05-06 20:56 | 24.50286 | 112.61179 | 31142 ft | 442 kts | 276° |
| 2026-05-06 20:57 | 24.50613 | 112.57825 | 31301 ft | 442 kts | 276° |
| 2026-05-06 20:57 | 24.50940 | 112.54464 | 31536 ft | 441 kts | 276° |
| 2026-05-06 20:57 | 24.51264 | 112.51129 | 31771 ft | 439 kts | 276° |
| 2026-05-06 20:57 | 24.51587 | 112.47796 | 31953 ft | 439 kts | 277° |
| 2026-05-06 20:58 | 24.51909 | 112.44458 | 32141 ft | 439 kts | 277° |
| 2026-05-06 20:58 | 24.52225 | 112.41176 | 32437 ft | 436 kts | 277° |
| 2026-05-06 20:58 | 24.52543 | 112.37869 | 32647 ft | 435 kts | 277° |
| 2026-05-06 20:58 | 24.52861 | 112.34556 | 32789 ft | 436 kts | 277° |
| 2026-05-06 20:59 | 24.53178 | 112.31241 | 32950 ft | 436 kts | 277° |
| 2026-05-06 20:59 | 24.53495 | 112.27925 | 33117 ft | 436 kts | 277° |
| 2026-05-06 20:59 | 24.53811 | 112.24606 | 33284 ft | 436 kts | 277° |
| 2026-05-06 20:59 | 24.54125 | 112.21295 | 33465 ft | 436 kts | 277° |
| 2026-05-06 21:00 | 24.54439 | 112.17983 | 33651 ft | 435 kts | 277° |
| 2026-05-06 21:00 | 24.54746 | 112.14726 | 33857 ft | 434 kts | 277° |
| 2026-05-06 21:00 | 24.55058 | 112.11425 | 33928 ft | 435 kts | 277° |
| 2026-05-06 21:01 | 24.55683 | 112.04795 | 33934 ft | 437 kts | 277° |
| 2026-05-06 21:01 | 24.56304 | 111.98155 | 33934 ft | 436 kts | 277° |
| 2026-05-06 21:02 | 24.56922 | 111.91515 | 33942 ft | 436 kts | 277° |
| 2026-05-06 21:02 | 24.57533 | 111.84922 | 33935 ft | 436 kts | 277° |
| 2026-05-06 21:03 | 24.58144 | 111.78294 | 33925 ft | 436 kts | 277° |
| 2026-05-06 21:03 | 24.58753 | 111.71659 | 33931 ft | 435 kts | 277° |
| 2026-05-06 21:04 | 24.59359 | 111.65031 | 33941 ft | 436 kts | 277° |
| 2026-05-06 21:04 | 24.59963 | 111.58385 | 33934 ft | 437 kts | 277° |
| 2026-05-06 21:05 | 24.60462 | 111.52864 | 33916 ft | 437 kts | 277° |
| 2026-05-06 21:05 | 24.61160 | 111.45118 | 33922 ft | 438 kts | 277° |
| 2026-05-06 21:06 | 24.61756 | 111.38461 | 33919 ft | 438 kts | 277° |
| 2026-05-06 21:06 | 24.62251 | 111.32910 | 33922 ft | 438 kts | 277° |
| 2026-05-06 21:07 | 24.62842 | 111.26224 | 33920 ft | 438 kts | 277° |
| 2026-05-06 21:07 | 24.63422 | 111.19550 | 33922 ft | 438 kts | 277° |
| 2026-05-06 21:08 | 24.64000 | 111.12871 | 33910 ft | 438 kts | 277° |
| 2026-05-06 21:08 | 24.64571 | 111.06252 | 33921 ft | 438 kts | 277° |
| 2026-05-06 21:09 | 24.65144 | 110.99576 | 33927 ft | 437 kts | 277° |
| 2026-05-06 21:09 | 24.65713 | 110.92912 | 33925 ft | 438 kts | 277° |
| 2026-05-06 21:10 | 24.66280 | 110.86232 | 33910 ft | 438 kts | 277° |
| 2026-05-06 21:10 | 24.67333 | 110.79721 | 33917 ft | 435 kts | 293° |
| 2026-05-06 21:11 | 24.70394 | 110.74028 | 33907 ft | 435 kts | 311° |
| 2026-05-06 21:11 | 24.74754 | 110.69402 | 33906 ft | 435 kts | 315° |
| 2026-05-06 21:12 | 24.79181 | 110.64840 | 33911 ft | 435 kts | 315° |
| 2026-05-06 21:12 | 24.83573 | 110.60243 | 33904 ft | 435 kts | 314° |
| 2026-05-06 21:13 | 24.87927 | 110.55647 | 33901 ft | 436 kts | 314° |
| 2026-05-06 21:13 | 24.92298 | 110.51023 | 33900 ft | 435 kts | 314° |
| 2026-05-06 21:14 | 24.96664 | 110.46401 | 33894 ft | 435 kts | 315° |
| 2026-05-06 21:14 | 25.01030 | 110.41779 | 33894 ft | 435 kts | 315° |
| 2026-05-06 21:15 | 25.05403 | 110.37160 | 33903 ft | 434 kts | 315° |
| 2026-05-06 21:15 | 25.09746 | 110.32579 | 33889 ft | 435 kts | 315° |
| 2026-05-06 21:16 | 25.14113 | 110.27964 | 33896 ft | 435 kts | 314° |
| 2026-05-06 21:16 | 25.18488 | 110.23334 | 33895 ft | 435 kts | 314° |
| 2026-05-06 21:17 | 25.22877 | 110.18701 | 33894 ft | 436 kts | 315° |
| 2026-05-06 21:17 | 25.27294 | 110.14086 | 33891 ft | 437 kts | 315° |
| 2026-05-06 21:18 | 25.31663 | 110.09522 | 33888 ft | 432 kts | 315° |
| 2026-05-06 21:18 | 25.36003 | 110.04974 | 33884 ft | 428 kts | 315° |
| 2026-05-06 21:19 | 25.40319 | 110.00443 | 33882 ft | 425 kts | 315° |
| 2026-05-06 21:19 | 25.44606 | 109.95938 | 33895 ft | 424 kts | 315° |
| 2026-05-06 21:20 | 25.48867 | 109.91455 | 33903 ft | 427 kts | 314° |
| 2026-05-06 21:20 | 25.53198 | 109.86894 | 33901 ft | 431 kts | 314° |
| 2026-05-06 21:21 | 25.57568 | 109.82287 | 33898 ft | 435 kts | 314° |
| 2026-05-06 21:21 | 25.61967 | 109.77646 | 33868 ft | 437 kts | 314° |
| 2026-05-06 21:22 | 25.66337 | 109.73029 | 33877 ft | 437 kts | 314° |
| 2026-05-06 21:22 | 25.70745 | 109.68367 | 33875 ft | 437 kts | 314° |
| 2026-05-06 21:23 | 25.75058 | 109.63626 | 33860 ft | 435 kts | 307° |
| 2026-05-06 21:23 | 25.78262 | 109.57974 | 33865 ft | 432 kts | 295° |
| 2026-05-06 21:24 | 25.80241 | 109.51703 | 33872 ft | 431 kts | 287° |
| 2026-05-06 21:24 | 25.81881 | 109.45300 | 33845 ft | 431 kts | 286° |
| 2026-05-06 21:25 | 25.83522 | 109.38946 | 33864 ft | 430 kts | 286° |
| 2026-05-06 21:25 | 25.85201 | 109.32556 | 33875 ft | 433 kts | 285° |
| 2026-05-06 21:26 | 25.86888 | 109.26103 | 33863 ft | 437 kts | 285° |
| 2026-05-06 21:26 | 25.88588 | 109.19601 | 33894 ft | 439 kts | 285° |
| 2026-05-06 21:27 | 25.90298 | 109.13053 | 33884 ft | 443 kts | 285° |
| 2026-05-06 21:27 | 25.92019 | 109.06451 | 33884 ft | 446 kts | 284° |
| 2026-05-06 21:28 | 25.93761 | 108.99806 | 33883 ft | 450 kts | 284° |
| 2026-05-06 21:28 | 25.95529 | 108.93126 | 33898 ft | 452 kts | 284° |
| 2026-05-06 21:29 | 25.97293 | 108.86441 | 33898 ft | 453 kts | 284° |
| 2026-05-06 21:29 | 25.99064 | 108.79706 | 33904 ft | 453 kts | 284° |
| 2026-05-06 21:30 | 26.00816 | 108.73027 | 33907 ft | 444 kts | 285° |
| 2026-05-06 21:30 | 26.02550 | 108.66511 | 33918 ft | 438 kts | 285° |
| 2026-05-06 21:31 | 26.04292 | 108.60015 | 33920 ft | 438 kts | 285° |
| 2026-05-06 21:31 | 26.06031 | 108.53504 | 33922 ft | 439 kts | 285° |
| 2026-05-06 21:32 | 26.07756 | 108.47022 | 33922 ft | 440 kts | 285° |
| 2026-05-06 21:32 | 26.10615 | 108.37311 | 33929 ft | 441 kts | 293° |
| 2026-05-06 21:33 | 26.13308 | 108.31169 | 33941 ft | 440 kts | 294° |
| 2026-05-06 21:33 | 26.16020 | 108.25041 | 33938 ft | 440 kts | 294° |
| 2026-05-06 21:34 | 26.18670 | 108.18957 | 33943 ft | 438 kts | 293° |
| 2026-05-06 21:34 | 26.21309 | 108.12841 | 33950 ft | 437 kts | 293° |
| 2026-05-06 21:35 | 26.23939 | 108.06726 | 33944 ft | 437 kts | 293° |
| 2026-05-06 21:35 | 26.26565 | 108.00611 | 33949 ft | 437 kts | 293° |
| 2026-05-06 21:36 | 26.29174 | 107.94529 | 33959 ft | 437 kts | 293° |
| 2026-05-06 21:36 | 26.31793 | 107.88416 | 33955 ft | 437 kts | 293° |
| 2026-05-06 21:37 | 26.34410 | 107.82299 | 33976 ft | 437 kts | 293° |
| 2026-05-06 21:37 | 26.37028 | 107.76171 | 33955 ft | 437 kts | 293° |
| 2026-05-06 21:38 | 26.39640 | 107.70048 | 33974 ft | 436 kts | 293° |
| 2026-05-06 21:38 | 26.42244 | 107.63934 | 33969 ft | 436 kts | 293° |
| 2026-05-06 21:39 | 26.44843 | 107.57824 | 33970 ft | 435 kts | 293° |
| 2026-05-06 21:39 | 26.47423 | 107.51751 | 33976 ft | 435 kts | 293° |